Time;durP1;ratioP1;P1;durP2;ratioP2;P2;SDS_P1;SDS_P2;PMS_P1;PMS_P2;Temp;Humidity;BMP_temperature;BMP_pressure;BME280_temperature;BME280_humidity;BME280_pressure;Samples;Min_cycle;Max_cycle;Signal;HPM_P1;HPM_P2
2023/10/06 00:01:44;;;;;;;7.47;3.60;;;19.10;80.00;;;;;;5052805;28;20154;-70
2023/10/06 00:04:15;;;;;;;7.38;3.20;;;19.10;80.10;;;;;;5052755;28;20033;-71
2023/10/06 00:06:42;;;;;;;6.72;3.75;;;19.10;80.20;;;;;;5052181;28;20086;-72
2023/10/06 00:09:28;;;;;;;8.52;3.58;;;19.00;80.20;;;;;;5052041;28;20021;-71
2023/10/06 00:11:55;;;;;;;8.10;3.22;;;19.00;80.10;;;;;;5052522;28;20064;-71
2023/10/06 00:14:39;;;;;;;6.10;3.40;;;19.00;79.80;;;;;;5052426;28;20025;-71
2023/10/06 00:17:17;;;;;;;6.53;3.10;;;19.00;79.00;;;;;;5052319;28;20033;-72
2023/10/06 00:19:44;;;;;;;5.20;3.20;;;19.00;79.10;;;;;;5052352;28;20024;-71
2023/10/06 00:24:43;;;;;;;;;;;18.90;78.90;;;;;;5052405;28;20021;-71
2023/10/06 00:27:11;;;;;;;10.38;3.22;;;19.00;78.80;;;;;;5052590;28;19951;-71
2023/10/06 00:29:38;;;;;;;7.35;4.00;;;18.90;79.10;;;;;;5052351;28;20112;-70
2023/10/06 00:32:21;;;;;;;6.22;3.67;;;19.00;79.80;;;;;;5052229;28;20079;-70
2023/10/06 00:34:48;;;;;;;8.50;3.47;;;18.90;80.00;;;;;;5052490;28;20040;-71
2023/10/06 00:37:15;;;;;;;5.88;3.25;;;18.90;80.40;;;;;;5052198;28;20032;-71
2023/10/06 00:39:42;;;;;;;7.10;3.50;;;18.80;80.60;;;;;;5052062;28;20017;-72
2023/10/06 00:42:08;;;;;;;6.90;3.72;;;18.80;80.80;;;;;;5052098;28;20025;-71
2023/10/06 00:44:35;;;;;;;7.38;3.75;;;18.70;80.90;;;;;;5052420;28;20040;-71
2023/10/06 00:47:05;;;;;;;8.52;3.40;;;18.70;81.30;;;;;;5051979;28;20045;-72
2023/10/06 00:49:34;;;;;;;4.63;3.30;;;18.60;81.70;;;;;;5052339;28;20022;-71
2023/10/06 00:52:01;;;;;;;11.85;4.10;;;18.60;81.80;;;;;;5052121;28;20025;-70
2023/10/06 00:54:27;;;;;;;6.15;3.88;;;18.50;81.80;;;;;;5052089;28;20036;-71
2023/10/06 00:56:58;;;;;;;6.93;3.60;;;18.50;82.20;;;;;;5050568;28;20061;-72
2023/10/06 00:59:26;;;;;;;6.15;3.63;;;18.40;82.30;;;;;;5049180;28;20082;-71
2023/10/06 01:01:55;;;;;;;4.97;3.35;;;18.40;82.60;;;;;;5049307;28;20029;-72
2023/10/06 01:04:25;;;;;;;7.63;3.67;;;18.30;82.80;;;;;;5049660;28;20025;-71
2023/10/06 01:06:54;;;;;;;6.78;3.45;;;18.30;83.10;;;;;;5051565;28;20100;-71
2023/10/06 01:09:30;;;;;;;9.93;3.22;;;18.30;83.20;;;;;;5051991;28;20388;-71
2023/10/06 01:11:57;;;;;;;6.00;3.80;;;18.30;83.20;;;;;;5051798;28;20017;-71
2023/10/06 01:14:34;;;;;;;4.75;3.28;;;18.20;83.50;;;;;;5067089;28;20056;-71
2023/10/06 01:19:47;;;;;;;6.80;3.30;;;18.20;83.50;;;;;;5053954;28;20029;-71
2023/10/06 01:22:28;;;;;;;8.05;3.50;;;18.10;83.60;;;;;;5055027;28;20397;-71
2023/10/06 01:24:54;;;;;;;11.40;3.70;;;18.10;83.60;;;;;;5055133;28;20036;-73
2023/10/06 01:27:25;;;;;;;9.10;3.72;;;18.10;84.00;;;;;;5055638;28;20157;-70
2023/10/06 01:30:16;;;;;;;6.72;3.40;;;18.10;84.10;;;;;;5055348;28;20017;-71
2023/10/06 01:32:41;;;;;;;6.78;3.45;;;18.10;84.10;;;;;;5055196;28;20037;-70
2023/10/06 01:35:12;;;;;;;7.93;3.20;;;18.00;84.00;;;;;;5054911;28;20026;-70
2023/10/06 01:37:42;;;;;;;6.15;4.10;;;18.00;84.20;;;;;;5055228;28;20040;-71
2023/10/06 01:40:18;;;;;;;8.82;3.35;;;17.90;84.60;;;;;;5054837;28;20036;-71
2023/10/06 01:42:45;;;;;;;5.93;3.90;;;17.90;84.70;;;;;;5054998;28;20032;-71
2023/10/06 01:45:14;;;;;;;5.82;3.58;;;17.90;85.00;;;;;;5054912;28;20146;-71
2023/10/06 01:47:41;;;;;;;5.85;3.17;;;17.90;85.20;;;;;;5054942;28;20049;-71
2023/10/06 01:50:09;;;;;;;6.22;3.40;;;17.90;85.50;;;;;;5054907;28;20372;-71
2023/10/06 01:52:35;;;;;;;5.68;3.72;;;17.80;85.50;;;;;;5055352;28;20029;-71
2023/10/06 01:55:12;;;;;;;8.88;3.50;;;17.80;85.80;;;;;;5054968;28;20029;-71
2023/10/06 01:57:39;;;;;;;8.23;3.47;;;17.80;85.80;;;;;;5055160;28;20021;-71
2023/10/06 02:00:14;;;;;;;5.15;3.33;;;17.80;85.90;;;;;;5055038;28;20025;-71
2023/10/06 02:02:40;;;;;;;10.50;4.50;;;17.80;85.40;;;;;;5054862;28;20021;-71
2023/10/06 02:05:12;;;;;;;8.07;3.50;;;17.70;85.30;;;;;;5054839;28;20051;-71
2023/10/06 02:07:39;;;;;;;6.50;3.50;;;17.70;85.40;;;;;;5053438;28;20483;-72
2023/10/06 02:10:12;;;;;;;7.85;3.70;;;17.70;85.00;;;;;;5054298;28;20079;-71
2023/10/06 02:12:38;;;;;;;7.10;3.20;;;17.70;85.00;;;;;;5054861;28;20053;-71
2023/10/06 02:15:10;;;;;;;8.68;3.38;;;17.60;84.60;;;;;;5053337;28;20021;-71
2023/10/06 02:17:42;;;;;;;7.30;3.55;;;17.60;84.60;;;;;;5054478;28;20430;-71
2023/10/06 02:20:28;;;;;;;6.53;4.03;;;17.60;84.60;;;;;;5054045;28;20052;-71
2023/10/06 02:22:57;;;;;;;6.93;3.20;;;17.60;84.60;;;;;;5054246;28;20028;-71
2023/10/06 02:25:25;;;;;;;4.93;3.00;;;17.60;84.60;;;;;;5054203;28;20017;-71
2023/10/06 02:27:51;;;;;;;5.07;2.92;;;17.60;84.70;;;;;;5053277;28;20021;-71
2023/10/06 02:30:19;;;;;;;5.57;3.17;;;17.60;84.80;;;;;;5053487;28;20048;-70
2023/10/06 02:32:45;;;;;;;8.65;3.15;;;17.50;84.50;;;;;;5054178;28;20112;-71
2023/10/06 02:35:17;;;;;;;6.68;3.38;;;17.50;84.30;;;;;;5053932;28;20487;-71
2023/10/06 02:37:45;;;;;;;5.32;2.97;;;17.50;84.20;;;;;;5054020;28;20033;-71
2023/10/06 02:40:11;;;;;;;8.00;3.45;;;17.50;84.40;;;;;;5054220;28;20021;-71
2023/10/06 02:42:47;;;;;;;5.25;2.83;;;17.50;84.60;;;;;;5054272;28;20059;-71
2023/10/06 02:45:17;;;;;;;8.07;3.10;;;17.40;84.50;;;;;;5054106;28;20443;-71
2023/10/06 02:47:43;;;;;;;6.13;3.17;;;17.40;84.60;;;;;;5054074;28;20133;-71
2023/10/06 02:50:12;;;;;;;8.65;3.33;;;17.40;85.00;;;;;;5053865;28;20049;-71
2023/10/06 02:52:42;;;;;;;5.20;3.30;;;17.40;85.10;;;;;;5054076;28;20376;-71
2023/10/06 02:55:09;;;;;;;5.03;3.20;;;17.40;85.10;;;;;;5053530;28;20027;-71
2023/10/06 02:57:35;;;;;;;4.90;3.03;;;17.40;85.30;;;;;;5053413;28;20036;-71
2023/10/06 03:02:55;;;;;;;9.50;3.20;;;17.40;85.30;;;;;;5053455;28;20465;-72
2023/10/06 03:05:38;;;;;;;6.63;3.03;;;17.30;85.30;;;;;;5053651;28;20068;-71
2023/10/06 03:08:08;;;;;;;5.70;3.05;;;17.30;85.30;;;;;;5053542;28;20047;-71
2023/10/06 03:10:42;;;;;;;6.28;3.20;;;17.30;85.00;;;;;;5053303;28;20457;-71
2023/10/06 03:13:09;;;;;;;6.22;3.20;;;17.30;85.10;;;;;;5053422;28;20495;-71
2023/10/06 03:15:36;;;;;;;5.15;3.58;;;17.30;84.70;;;;;;5053674;28;20027;-71
2023/10/06 03:18:03;;;;;;;6.20;2.80;;;17.30;84.90;;;;;;5053527;28;20037;-71
2023/10/06 03:20:39;;;;;;;8.35;3.35;;;17.30;84.90;;;;;;5053218;28;20538;-71
2023/10/06 03:23:13;;;;;;;8.68;3.38;;;17.20;84.90;;;;;;5053245;28;20059;-71
2023/10/06 03:25:39;;;;;;;6.78;3.10;;;17.20;85.10;;;;;;5053357;28;20017;-71
2023/10/06 03:28:05;;;;;;;9.98;3.85;;;17.20;85.10;;;;;;5052794;28;20029;-70
2023/10/06 03:30:36;;;;;;;5.25;3.40;;;17.20;85.10;;;;;;5053013;28;20021;-71
2023/10/06 03:33:05;;;;;;;8.70;3.35;;;17.20;85.30;;;;;;5051976;28;20427;-71
2023/10/06 03:35:45;;;;;;;9.23;3.35;;;17.20;85.30;;;;;;5053457;28;20025;-71
2023/10/06 03:38:31;;;;;;;5.95;3.50;;;17.10;85.00;;;;;;5052926;28;20041;-71
2023/10/06 03:43:49;;;;;;;9.63;3.47;;;17.10;85.50;;;;;;5052867;28;20036;-71
2023/10/06 03:46:19;;;;;;;10.05;3.40;;;17.10;85.50;;;;;;5052880;28;20022;-71
2023/10/06 03:48:48;;;;;;;9.27;3.22;;;17.10;85.50;;;;;;5052899;28;20496;-71
2023/10/06 03:51:18;;;;;;;6.00;3.03;;;17.10;85.40;;;;;;5052975;28;20021;-71
2023/10/06 03:53:45;;;;;;;8.23;3.75;;;17.10;85.50;;;;;;5052575;28;20033;-71
2023/10/06 03:56:16;;;;;;;6.60;3.58;;;17.10;85.70;;;;;;5052765;28;20354;-71
2023/10/06 03:58:44;;;;;;;8.45;3.25;;;17.00;85.60;;;;;;5052664;28;20057;-71
2023/10/06 04:01:11;;;;;;;5.80;3.17;;;17.10;85.70;;;;;;5052613;28;20100;-71
2023/10/06 04:03:40;;;;;;;5.07;3.05;;;17.10;85.70;;;;;;5052972;28;20405;-71
2023/10/06 04:06:12;;;;;;;4.95;3.15;;;17.10;85.60;;;;;;5052335;28;20131;-71
2023/10/06 04:08:38;;;;;;;6.50;3.80;;;17.10;85.50;;;;;;5052641;28;20033;-71
2023/10/06 04:11:05;;;;;;;8.55;3.15;;;17.10;85.50;;;;;;5052921;28;20044;-71
2023/10/06 04:13:31;;;;;;;7.78;3.15;;;17.10;85.40;;;;;;5052464;28;20070;-71
2023/10/06 04:15:58;;;;;;;6.25;3.58;;;17.10;85.50;;;;;;5052685;28;20033;-71
2023/10/06 04:18:24;;;;;;;7.55;3.35;;;17.10;85.40;;;;;;5052166;28;20033;-71
2023/10/06 04:20:54;;;;;;;7.25;3.03;;;17.10;85.30;;;;;;5052289;28;20374;-71
2023/10/06 04:23:23;;;;;;;7.53;2.80;;;17.00;85.10;;;;;;5052132;28;20337;-71
2023/10/06 04:25:56;;;;;;;6.88;3.08;;;17.00;85.50;;;;;;5052048;28;20025;-71
2023/10/06 04:28:27;;;;;;;7.65;2.80;;;17.00;85.50;;;;;;5052564;28;20028;-71
2023/10/06 04:30:54;;;;;;;6.47;3.47;;;17.00;85.50;;;;;;5052568;28;20052;-70
2023/10/06 04:33:20;;;;;;;5.15;2.83;;;17.00;85.80;;;;;;5052246;28;20124;-72
2023/10/06 04:35:56;;;;;;;5.32;2.95;;;17.00;85.90;;;;;;5052202;28;20032;-71
2023/10/06 04:38:23;;;;;;;4.65;2.53;;;17.00;86.30;;;;;;5052414;28;20032;-71
2023/10/06 04:40:49;;;;;;;4.28;2.65;;;17.00;86.20;;;;;;5052271;28;20021;-71
2023/10/06 04:43:17;;;;;;;7.30;2.88;;;17.10;86.00;;;;;;5052199;28;20028;-70
2023/10/06 04:45:43;;;;;;;7.10;3.65;;;17.00;85.80;;;;;;5051979;28;20198;-71
2023/10/06 04:48:09;;;;;;;8.57;3.42;;;17.10;85.80;;;;;;5052193;28;20061;-70
2023/10/06 04:50:35;;;;;;;4.57;2.97;;;17.10;85.90;;;;;;5052382;28;20079;-71
2023/10/06 04:53:05;;;;;;;9.15;3.80;;;17.10;85.70;;;;;;5046596;28;20500;-71
2023/10/06 04:55:31;;;;;;;4.55;2.75;;;17.10;85.40;;;;;;5053087;28;20036;-71
2023/10/06 04:57:57;;;;;;;4.28;2.72;;;17.20;85.50;;;;;;5055599;28;20029;-71
2023/10/06 05:00:27;;;;;;;6.70;3.03;;;17.10;85.50;;;;;;5055681;28;20013;-71
2023/10/06 05:02:53;;;;;;;5.47;3.03;;;17.20;85.50;;;;;;5055714;28;20462;-70
2023/10/06 05:05:20;;;;;;;5.60;2.90;;;17.20;85.40;;;;;;5055472;28;20071;-70
2023/10/06 05:07:55;;;;;;;6.75;2.67;;;17.20;85.00;;;;;;5055742;28;20036;-70
2023/10/06 05:10:25;;;;;;;5.93;3.08;;;17.20;84.90;;;;;;5055762;28;20480;-70
2023/10/06 05:12:51;;;;;;;6.15;2.70;;;17.20;84.50;;;;;;5055847;28;20099;-70
2023/10/06 05:15:23;;;;;;;14.15;3.22;;;17.30;84.40;;;;;;5055944;28;20021;-70
2023/10/06 05:17:55;;;;;;;4.25;2.50;;;17.30;84.20;;;;;;5055866;28;20162;-70
2023/10/06 05:20:29;;;;;;;10.67;2.87;;;17.40;83.90;;;;;;5055979;28;20020;-71
2023/10/06 05:23:05;;;;;;;6.65;2.95;;;17.40;83.50;;;;;;5055969;28;20499;-70
2023/10/06 05:25:34;;;;;;;5.57;3.10;;;17.50;83.20;;;;;;5055337;28;20033;-71
2023/10/06 05:28:00;;;;;;;8.10;2.72;;;17.50;83.00;;;;;;5055217;28;20032;-71
2023/10/06 05:30:27;;;;;;;4.60;3.05;;;17.60;82.90;;;;;;5055263;28;20032;-70
2023/10/06 05:32:57;;;;;;;4.35;2.65;;;17.60;82.90;;;;;;5055389;28;20477;-71
2023/10/06 05:35:24;;;;;;;4.55;2.97;;;17.60;82.70;;;;;;5055444;28;20025;-70
2023/10/06 05:37:50;;;;;;;4.97;2.85;;;17.70;82.40;;;;;;5055262;28;20059;-70
2023/10/06 05:40:16;;;;;;;6.20;2.88;;;17.70;82.30;;;;;;5055366;28;20039;-71
2023/10/06 05:42:49;;;;;;;7.22;2.72;;;17.80;82.40;;;;;;5055070;28;20038;-71
2023/10/06 05:45:16;;;;;;;6.88;2.72;;;17.80;82.20;;;;;;5055089;28;20028;-71
2023/10/06 05:47:48;;;;;;;7.38;2.90;;;17.80;82.00;;;;;;5054860;28;20049;-72
2023/10/06 05:50:35;;;;;;;7.95;3.20;;;17.90;81.80;;;;;;5054217;28;20021;-72
2023/10/06 05:53:04;;;;;;;5.97;2.72;;;17.90;81.70;;;;;;5053508;28;20025;-72
2023/10/06 05:55:30;;;;;;;6.93;2.72;;;17.90;81.50;;;;;;5054255;28;20025;-72
2023/10/06 05:58:00;;;;;;;8.30;3.08;;;18.00;81.50;;;;;;5054689;28;20124;-72
2023/10/06 06:00:27;;;;;;;5.75;2.90;;;18.00;81.40;;;;;;5054464;28;20543;-72
2023/10/06 06:02:56;;;;;;;12.90;3.65;;;18.10;81.50;;;;;;5053235;28;20029;-72
2023/10/06 06:05:22;;;;;;;6.53;3.20;;;18.10;81.30;;;;;;5052701;28;20106;-72
2023/10/06 06:07:51;;;;;;;6.95;3.13;;;18.20;80.90;;;;;;5054818;28;20392;-72
2023/10/06 06:10:17;;;;;;;6.72;2.63;;;18.20;80.60;;;;;;5054809;28;20017;-72
2023/10/06 06:12:43;;;;;;;5.07;2.63;;;18.20;80.60;;;;;;5054777;28;20032;-70
2023/10/06 06:15:11;;;;;;;4.72;3.08;;;18.30;80.70;;;;;;5054923;28;20480;-72
2023/10/06 06:17:37;;;;;;;7.40;3.08;;;18.30;80.60;;;;;;5054613;28;20119;-72
2023/10/06 06:20:07;;;;;;;4.78;2.88;;;18.30;81.30;;;;;;5054441;28;20029;-70
2023/10/06 06:22:36;;;;;;;9.25;3.20;;;18.40;80.80;;;;;;5054674;28;20461;-71
2023/10/06 06:25:05;;;;;;;7.05;2.75;;;18.40;81.00;;;;;;5054085;28;20495;-72
2023/10/06 06:27:32;;;;;;;5.35;2.50;;;18.40;81.00;;;;;;5054605;28;20389;-71
2023/10/06 06:29:58;;;;;;;9.57;3.17;;;18.40;80.90;;;;;;5054395;28;20020;-72
2023/10/06 06:32:25;;;;;;;7.30;2.90;;;18.50;81.90;;;;;;5054491;28;20393;-71
2023/10/06 06:34:51;;;;;;;5.70;2.65;;;18.50;81.40;;;;;;5054532;28;20036;-71
2023/10/06 06:37:17;;;;;;;9.13;3.10;;;18.60;81.30;;;;;;5054310;28;20393;-72
2023/10/06 06:39:44;;;;;;;4.35;2.40;;;18.60;80.90;;;;;;5053958;28;20021;-72
2023/10/06 06:42:10;;;;;;;11.15;3.08;;;18.70;80.50;;;;;;5052813;28;20087;-72
2023/10/06 06:44:36;;;;;;;8.60;2.75;;;18.70;80.30;;;;;;5054223;28;20025;-72
2023/10/06 06:47:03;;;;;;;6.78;3.00;;;18.70;80.50;;;;;;5053801;28;20059;-72
2023/10/06 06:49:29;;;;;;;6.07;2.60;;;18.70;80.40;;;;;;5053867;28;20017;-72
2023/10/06 06:51:58;;;;;;;8.40;2.97;;;18.80;80.30;;;;;;5053863;28;20032;-72
2023/10/06 06:54:24;;;;;;;5.65;2.63;;;18.90;79.50;;;;;;5054229;28;20013;-72
2023/10/06 06:56:50;;;;;;;5.90;2.97;;;18.90;78.90;;;;;;5054008;28;20032;-73
2023/10/06 06:59:19;;;;;;;4.93;3.00;;;18.90;78.90;;;;;;5053953;28;20025;-72
2023/10/06 07:01:47;;;;;;;7.28;3.90;;;19.00;78.80;;;;;;5053873;28;20051;-72
2023/10/06 07:04:13;;;;;;;6.50;3.08;;;19.10;78.70;;;;;;5054062;28;20044;-72
2023/10/06 07:06:39;;;;;;;6.57;2.95;;;19.10;78.60;;;;;;5054134;28;20017;-71
2023/10/06 07:09:12;;;;;;;5.22;2.53;;;19.10;78.20;;;;;;5053681;28;20029;-72
2023/10/06 07:11:40;;;;;;;6.38;3.20;;;19.20;77.80;;;;;;5053483;28;20032;-72
2023/10/06 07:14:06;;;;;;;12.73;2.85;;;19.20;77.70;;;;;;5053605;28;20388;-72
2023/10/06 07:16:33;;;;;;;7.10;2.40;;;19.30;77.50;;;;;;5053408;28;20032;-72
2023/10/06 07:18:59;;;;;;;5.50;2.80;;;19.30;77.20;;;;;;5053807;28;20108;-72
2023/10/06 07:21:24;;;;;;;5.80;2.70;;;19.40;77.00;;;;;;5053937;28;20092;-72
2023/10/06 07:23:56;;;;;;;6.55;3.15;;;19.40;76.60;;;;;;5053448;28;20029;-72
2023/10/06 07:26:22;;;;;;;9.82;2.90;;;19.50;76.60;;;;;;5053124;28;20029;-71
2023/10/06 07:28:56;;;;;;;5.72;3.10;;;19.50;77.10;;;;;;5053459;28;20100;-72
2023/10/06 07:31:24;;;;;;;7.68;2.78;;;19.60;77.10;;;;;;5053750;28;20029;-72
2023/10/06 07:33:54;;;;;;;10.48;2.60;;;19.60;77.30;;;;;;5052313;28;20056;-72
2023/10/06 07:36:20;;;;;;;6.28;2.22;;;19.60;76.80;;;;;;5053677;28;20021;-72
2023/10/06 07:38:46;;;;;;;6.45;2.67;;;19.70;76.40;;;;;;5053252;28;20064;-71
2023/10/06 07:41:23;;;;;;;6.70;2.65;;;19.70;76.20;;;;;;5053214;28;20465;-72
2023/10/06 07:43:50;;;;;;;5.80;2.95;;;19.80;76.40;;;;;;5053315;28;20021;-72
2023/10/06 07:46:16;;;;;;;4.40;2.30;;;19.80;76.30;;;;;;5053369;28;20029;-72
2023/10/06 07:48:45;;;;;;;9.90;2.70;;;19.80;75.80;;;;;;5052976;28;20049;-72
2023/10/06 07:51:16;;;;;;;4.95;2.80;;;19.90;75.70;;;;;;5050809;28;20499;-72
2023/10/06 07:53:43;;;;;;;6.70;3.00;;;19.90;75.20;;;;;;5051175;28;20082;-72
2023/10/06 07:56:09;;;;;;;7.25;2.80;;;20.00;75.30;;;;;;5050814;28;20028;-72
2023/10/06 07:58:41;;;;;;;6.05;2.72;;;20.00;75.40;;;;;;5050979;28;20593;-72
2023/10/06 08:01:12;;;;;;;8.23;2.72;;;20.00;74.90;;;;;;5050749;28;20016;-72
2023/10/06 08:03:41;;;;;;;5.57;3.00;;;20.10;74.90;;;;;;5050974;28;20031;-72
2023/10/06 08:06:07;;;;;;;4.13;2.53;;;20.10;74.70;;;;;;5052586;28;20014;-72
2023/10/06 08:08:37;;;;;;;4.30;2.53;;;20.20;74.50;;;;;;5052785;28;20025;-72
2023/10/06 08:11:08;;;;;;;6.65;2.78;;;20.20;73.50;;;;;;5052282;28;20033;-73
2023/10/06 08:13:35;;;;;;;3.17;2.47;;;20.30;73.60;;;;;;5037806;28;20056;-73
2023/10/06 08:16:02;;;;;;;5.18;2.65;;;20.40;72.80;;;;;;5045221;28;20439;-73
2023/10/06 08:18:29;;;;;;;6.00;3.03;;;20.40;72.40;;;;;;5046913;28;20123;-72
2023/10/06 08:21:03;;;;;;;6.93;2.95;;;20.50;71.80;;;;;;5039236;28;20022;-72
2023/10/06 08:23:29;;;;;;;4.20;2.55;;;20.50;71.20;;;;;;5037997;28;20033;-73
2023/10/06 08:25:56;;;;;;;5.18;2.78;;;20.50;70.80;;;;;;5041515;28;20053;-73
2023/10/06 08:28:26;;;;;;;5.65;3.05;;;20.60;70.10;;;;;;5032463;28;20045;-72
2023/10/06 08:30:52;;;;;;;9.13;2.33;;;20.60;69.60;;;;;;5051530;28;20417;-73
2023/10/06 08:33:18;;;;;;;4.47;2.90;;;20.70;69.20;;;;;;5054052;28;20440;-72
2023/10/06 08:35:44;;;;;;;7.30;2.67;;;20.70;69.00;;;;;;5036934;28;20025;-73
2023/10/06 08:38:10;;;;;;;10.60;4.00;;;20.80;68.10;;;;;;5056248;28;20115;-72
2023/10/06 08:40:44;;;;;;;4.57;3.05;;;20.80;68.30;;;;;;5056680;28;20108;-71
2023/10/06 08:43:18;;;;;;;8.65;2.90;;;20.80;67.70;;;;;;5056290;28;20025;-72
2023/10/06 08:45:44;;;;;;;5.05;2.60;;;20.90;67.90;;;;;;5056582;28;20032;-71
2023/10/06 08:48:11;;;;;;;4.35;2.63;;;20.90;68.10;;;;;;5056269;28;20123;-72
2023/10/06 08:50:39;;;;;;;4.65;2.75;;;20.90;67.80;;;;;;5056564;28;20014;-72
2023/10/06 08:53:06;;;;;;;6.18;3.05;;;20.90;67.60;;;;;;5055219;28;20465;-72
2023/10/06 08:55:33;;;;;;;8.43;2.60;;;21.00;67.50;;;;;;5056480;28;20100;-71
2023/10/06 08:57:59;;;;;;;4.47;2.70;;;21.10;67.10;;;;;;5055119;28;20036;-71
2023/10/06 09:00:26;;;;;;;6.72;3.08;;;21.10;66.50;;;;;;5056319;28;20021;-71
2023/10/06 09:02:54;;;;;;;4.55;3.00;;;21.10;66.10;;;;;;5056281;28;20032;-71
2023/10/06 09:05:20;;;;;;;4.78;2.78;;;21.10;66.40;;;;;;5056259;28;20036;-71
2023/10/06 09:08:07;;;;;;;10.55;2.58;;;21.20;66.30;;;;;;5056302;28;20079;-71
2023/10/06 09:10:34;;;;;;;7.00;2.75;;;21.20;66.70;;;;;;5054647;28;20061;-71
2023/10/06 09:13:04;;;;;;;6.50;2.92;;;21.30;67.00;;;;;;5055379;28;20473;-72
2023/10/06 09:15:30;;;;;;;5.40;2.55;;;21.30;66.20;;;;;;5055732;28;20021;-71
2023/10/06 09:17:57;;;;;;;6.93;2.97;;;21.40;66.10;;;;;;5055811;28;20041;-72
2023/10/06 09:20:36;;;;;;;6.45;3.30;;;21.50;65.40;;;;;;5055975;28;20020;-71
2023/10/06 09:23:03;;;;;;;7.35;2.72;;;21.50;65.00;;;;;;5055453;28;20086;-71
2023/10/06 09:25:50;;;;;;;8.13;2.90;;;21.50;65.30;;;;;;5055057;28;20485;-70
2023/10/06 09:28:17;;;;;;;9.65;3.22;;;21.60;65.70;;;;;;5055409;28;20108;-71
2023/10/06 09:31:03;;;;;;;6.63;3.20;;;21.60;65.00;;;;;;5055447;28;20052;-71
2023/10/06 09:33:34;;;;;;;10.10;3.70;;;21.70;65.10;;;;;;5055240;28;20056;-71
2023/10/06 09:36:11;;;;;;;7.65;3.03;;;21.70;65.40;;;;;;5055363;28;20025;-71
2023/10/06 09:38:40;;;;;;;7.40;3.38;;;21.70;65.50;;;;;;5054951;28;20029;-70
2023/10/06 09:41:07;;;;;;;8.48;3.05;;;21.80;64.90;;;;;;5054950;28;20035;-71
2023/10/06 09:43:41;;;;;;;6.90;3.78;;;21.90;64.70;;;;;;5055441;28;20021;-71
2023/10/06 09:46:11;;;;;;;5.35;3.25;;;21.90;64.60;;;;;;5055524;28;20024;-71
2023/10/06 09:48:39;;;;;;;5.55;2.90;;;21.90;64.20;;;;;;5055206;28;20057;-71
2023/10/06 09:51:09;;;;;;;12.25;3.83;;;22.00;63.60;;;;;;5055372;28;20020;-70
2023/10/06 09:53:38;;;;;;;12.90;2.72;;;22.00;63.80;;;;;;5054753;28;20029;-72
2023/10/06 09:56:09;;;;;;;9.73;3.38;;;22.10;63.20;;;;;;5053925;28;20234;-71
2023/10/06 09:58:36;;;;;;;11.43;3.58;;;22.10;63.30;;;;;;5054406;28;20037;-71
2023/10/06 10:01:03;;;;;;;6.82;2.90;;;22.10;62.90;;;;;;5054233;28;20036;-71
2023/10/06 10:03:30;;;;;;;5.93;3.03;;;22.20;62.70;;;;;;5054203;28;20098;-71
2023/10/06 10:06:04;;;;;;;5.05;2.90;;;22.30;62.40;;;;;;5054258;28;20392;-71
2023/10/06 10:08:33;;;;;;;6.72;2.75;;;22.30;63.10;;;;;;5053980;28;20036;-72
2023/10/06 10:11:39;;;;;;;5.05;2.80;;;22.30;62.60;;;;;;5053956;28;20014;-71
2023/10/06 10:14:42;;;;;;;5.78;3.15;;;22.40;62.20;;;;;;5050765;28;20040;-71
2023/10/06 10:17:19;;;;;;;6.22;3.42;;;22.40;62.20;;;;;;5054114;28;20086;-71
2023/10/06 10:19:46;;;;;;;6.25;3.08;;;22.50;61.70;;;;;;5053962;28;20388;-71
2023/10/06 10:22:16;;;;;;;5.28;2.70;;;22.50;61.80;;;;;;5054062;28;20029;-71
2023/10/06 10:24:43;;;;;;;8.25;2.78;;;22.50;62.10;;;;;;5052799;28;20473;-71
2023/10/06 10:27:16;;;;;;;9.27;2.80;;;22.60;61.70;;;;;;5053906;28;20075;-71
2023/10/06 10:29:42;;;;;;;8.77;3.05;;;22.60;61.00;;;;;;5053495;28;20021;-71
2023/10/06 10:32:13;;;;;;;8.75;3.33;;;22.60;60.90;;;;;;5053762;28;20025;-71
2023/10/06 10:35:16;;;;;;;4.32;2.75;;;22.70;60.80;;;;;;5053293;28;20048;-70
2023/10/06 10:37:55;;;;;;;10.65;3.47;;;22.70;61.40;;;;;;5053748;28;20045;-72
2023/10/06 10:40:23;;;;;;;5.75;2.70;;;22.70;60.70;;;;;;5054253;28;20119;-71
2023/10/06 10:42:55;;;;;;;5.93;3.30;;;22.80;60.80;;;;;;5054259;28;20092;-72
2023/10/06 10:45:35;;;;;;;5.30;3.03;;;22.80;61.10;;;;;;5054189;28;20029;-71
2023/10/06 10:48:05;;;;;;;6.68;2.92;;;22.80;60.80;;;;;;5053467;28;20575;-71
2023/10/06 10:51:06;;;;;;;5.22;2.90;;;22.90;61.00;;;;;;5053887;28;20143;-72
2023/10/06 10:53:35;;;;;;;5.22;3.25;;;22.90;60.90;;;;;;5054024;28;20103;-72
2023/10/06 10:56:01;;;;;;;7.90;3.47;;;22.90;60.60;;;;;;5053989;28;20044;-71
2023/10/06 10:58:56;;;;;;;9.82;3.42;;;23.00;60.30;;;;;;5053660;28;20041;-72
2023/10/06 11:01:37;;;;;;;9.60;3.05;;;23.00;60.30;;;;;;5048377;28;20041;-71
2023/10/06 11:04:18;;;;;;;5.07;2.92;;;23.10;60.30;;;;;;5054106;28;20147;-72
2023/10/06 11:06:55;;;;;;;6.72;2.72;;;23.10;60.20;;;;;;5053868;28;20033;-72
2023/10/06 11:11:55;;;;;;;6.38;3.20;;;23.20;60.10;;;;;;5053599;28;20116;-72
2023/10/06 11:14:27;;;;;;;8.63;3.15;;;23.20;60.10;;;;;;5050791;28;20029;-72
2023/10/06 11:17:02;;;;;;;8.02;3.13;;;23.30;59.90;;;;;;5050685;28;20037;-72
2023/10/06 11:19:32;;;;;;;5.40;2.95;;;23.30;59.90;;;;;;5053032;28;20108;-72
2023/10/06 11:22:27;;;;;;;6.30;3.00;;;23.40;59.70;;;;;;5053586;28;20028;-71
2023/10/06 11:24:57;;;;;;;9.50;2.83;;;23.40;59.90;;;;;;5052999;28;20025;-71
2023/10/06 11:27:23;;;;;;;7.75;2.92;;;23.50;59.70;;;;;;5053201;28;20036;-71
2023/10/06 11:29:53;;;;;;;6.32;3.13;;;23.50;59.90;;;;;;5052965;28;20070;-71
2023/10/06 11:32:21;;;;;;;7.25;2.90;;;23.50;59.50;;;;;;5053061;28;20025;-71
2023/10/06 11:34:48;;;;;;;8.48;3.30;;;23.50;58.90;;;;;;5052945;28;20020;-71
2023/10/06 11:37:17;;;;;;;6.93;3.10;;;23.60;58.80;;;;;;5053301;28;20044;-71
2023/10/06 11:39:44;;;;;;;3.85;2.65;;;23.60;59.00;;;;;;5050129;28;20040;-71
2023/10/06 11:42:25;;;;;;;7.57;3.00;;;23.70;59.20;;;;;;5050252;28;20059;-72
2023/10/06 11:44:55;;;;;;;5.00;2.50;;;23.70;58.20;;;;;;5051638;28;20120;-71
2023/10/06 11:47:35;;;;;;;4.18;3.03;;;23.70;57.80;;;;;;5052515;28;20052;-70
2023/10/06 11:50:03;;;;;;;6.60;2.42;;;23.70;58.00;;;;;;5052827;28;20496;-71
2023/10/06 11:52:29;;;;;;;4.85;2.90;;;23.70;57.30;;;;;;5053098;28;20047;-70
2023/10/06 11:54:58;;;;;;;4.60;3.20;;;23.80;57.80;;;;;;5052741;28;20037;-71
2023/10/06 11:57:46;;;;;;;7.97;2.67;;;23.80;57.50;;;;;;5052851;28;20035;-71
2023/10/06 12:00:19;;;;;;;5.03;3.00;;;23.80;58.40;;;;;;5052346;28;20432;-70
2023/10/06 12:02:53;;;;;;;10.07;3.10;;;23.80;58.20;;;;;;5052495;28;20459;-69
2023/10/06 12:05:22;;;;;;;7.60;3.35;;;23.90;57.00;;;;;;5052049;28;20021;-71
2023/10/06 12:07:49;;;;;;;4.63;2.50;;;23.80;57.20;;;;;;5052352;28;20579;-71
2023/10/06 12:10:20;;;;;;;6.32;3.10;;;23.90;57.50;;;;;;5052487;28;20346;-71
2023/10/06 12:12:48;;;;;;;8.40;4.28;;;23.90;57.10;;;;;;5052532;28;20102;-69
2023/10/06 12:15:14;;;;;;;8.73;2.88;;;23.90;56.60;;;;;;5052390;28;20393;-70
2023/10/06 12:17:43;;;;;;;5.78;2.97;;;23.90;57.40;;;;;;5052738;28;20404;-70
2023/10/06 12:20:13;;;;;;;6.35;2.95;;;24.00;57.40;;;;;;5051164;28;20021;-70
2023/10/06 12:22:47;;;;;;;5.72;2.80;;;24.00;57.40;;;;;;5052501;28;20021;-70
2023/10/06 12:25:14;;;;;;;6.20;2.97;;;24.00;57.30;;;;;;5051165;28;20028;-69
2023/10/06 12:27:43;;;;;;;5.78;2.95;;;24.00;56.50;;;;;;5052559;28;20025;-70
2023/10/06 12:30:10;;;;;;;7.70;3.10;;;24.00;56.70;;;;;;5051973;28;20029;-71
2023/10/06 12:32:36;;;;;;;5.25;3.03;;;24.10;56.60;;;;;;5052233;28;20065;-68
2023/10/06 12:35:09;;;;;;;8.75;3.05;;;24.10;56.60;;;;;;5052370;28;20053;-70
2023/10/06 12:37:40;;;;;;;4.95;3.00;;;24.10;56.90;;;;;;5052196;28;20120;-69
2023/10/06 12:40:11;;;;;;;5.72;3.40;;;24.10;56.60;;;;;;5049982;28;20083;-71
2023/10/06 12:42:38;;;;;;;6.80;3.35;;;24.10;56.20;;;;;;5049749;28;20029;-71
2023/10/06 12:45:08;;;;;;;5.97;3.15;;;24.20;56.20;;;;;;5050192;28;20013;-72
2023/10/06 12:47:34;;;;;;;4.45;2.63;;;24.20;55.80;;;;;;5052271;28;20057;-72
2023/10/06 12:50:05;;;;;;;4.90;2.90;;;24.20;56.40;;;;;;5052016;28;20096;-72
2023/10/06 12:52:34;;;;;;;10.63;3.92;;;24.20;56.30;;;;;;5052008;28;20111;-71
2023/10/06 12:55:05;;;;;;;5.65;2.83;;;24.20;56.30;;;;;;5051949;28;20021;-71
2023/10/06 12:57:34;;;;;;;4.43;2.90;;;24.20;57.00;;;;;;5052031;28;20025;-71
2023/10/06 13:00:01;;;;;;;5.72;3.15;;;24.20;56.80;;;;;;5052054;28;20251;-71
2023/10/06 13:02:26;;;;;;;5.38;3.05;;;24.30;57.00;;;;;;5049560;28;20366;-72
2023/10/06 13:04:55;;;;;;;6.20;2.90;;;24.30;56.40;;;;;;5049559;28;20023;-72
2023/10/06 13:07:20;;;;;;;4.97;3.00;;;24.30;56.30;;;;;;5051847;28;20131;-71
2023/10/06 13:09:49;;;;;;;6.47;3.65;;;24.30;56.80;;;;;;5052525;28;20035;-71
2023/10/06 13:12:16;;;;;;;6.60;2.72;;;24.30;56.10;;;;;;5051948;28;20040;-71
2023/10/06 13:14:42;;;;;;;8.43;3.10;;;24.30;55.70;;;;;;5052892;28;20021;-72